Auburn, NE

7:36 PM CDT on July 13, 2014 (GMT -0500)
Nebraska City Municipal (KAFK) Elev 1161 ft | 40.61 °N, 95.86 °W | Change Station

Current weather conditions updated 21 minutes ago

Mostly Cloudy
Mostly Cloudy
81 °F
Feels Like 84 °F
N
0
Wind Variable Wind from North

Tomorrow is forecast to be Much Cooler than today. Periods of rain early.

Today
High -- | Low -- °F
--% Chance of Precip.
Yesterday
High -- | Low -- °F
Precip. -- in
6:04 AM 8:53 PM
Waning Gibbous, 96% visible
Pressure 29.98 in
Visibility 10.0 miles
Clouds Scattered Clouds 8000 ft
Mostly Cloudy 9000 ft
Heat Index 84 °F
Dew Point 70 °F
Humidity 69%
Rainfall 0.03 in
Snow Depth Not available.
UV 1 out of 12
Pollen 2.50 out of 12
Air Quality Not available.
Flu Activity Sporadic
METAR KAFK 140015Z AUTO 00000KT 10SM SCT080 BKN090 27/21 A2998 RMK AO2 T02700209

More Conditions Fewer Conditions

Pressure 29.98 in
Visibility 10.0 miles
Clouds Scattered Clouds 8000 ft
Mostly Cloudy 9000 ft
Heat Index 84 °F
Dew Point 70 °F
Humidity 69%
Rainfall 0.03 in
Snow Depth Not available.
UV 1 out of 12
Pollen 2.50 out of 12
Air Quality Not available.
Flu Activity Sporadic
METAR KAFK 140015Z AUTO 00000KT 10SM SCT080 BKN090 27/21 A2998 RMK AO2 T02700209

More Conditions Fewer Conditions

10-Day Weather Forecast

Almanac

Astronomy

Jul. 13, 2014 Rise Set
Actual Time 6:04 AM CDT 8:53 PM CDT
Civil Twilight 5:32 AM CDT 9:25 PM CDT
Nautical Twilight 4:51 AM CDT 10:06 PM CDT
Astronomical Twilight 4:05 AM CDT 10:52 PM CDT
Moon 9:41 PM CDT (7/13) 7:36 AM CDT (7/13)
Length of Visible Light 15h 53m
Length of Day
14h 48m
Tomorrow will be 1m 18s shorter.
Waning Gibbous, 96% of the Moon is Illuminated
Today
Waning Gibbous
Jul 18
Last Quarter
Jul 26
New
Aug 3
First Quarter
Aug 10
Full

Today's Extremes

State Highs State Lows

Community

WunderPhotos

Upload Photos

1,733,476 photos uploaded!

Nearby

Snow Depth

Station Depth Elevation
No new snow has been reported.

Earthquake Activity

City Distance Mag. Time & Date
No recent earthquake activity has been reported nearby.
Minimum magnitude displayed is 2.5.

Coastal Water Temperatures

Place Temperature
No Stations Reporting

Nearby Weather Stations

Station Location Temp. Heat Index Dew Point Humidity Wind Precip. Elev Updated Type
MesoWest HOWE , Stella, NE 88 °F 85 °F - - North  at  - 0.00 in / hr 1019 ft 4:45 PM CDT MADIS

Show More Stations Show Fewer Stations